Meath Environmental Platform

Observations for Trim Patrick St

Time AQI Temp °C Hum % Pres Pa CO μg/m³ H₂S μg/m³ NO μg/m³ NO₂ μg/m³ O₃ μg/m³ SO₂ μg/m³ PM1 μg/m³ PM2.5 μg/m³ PM10 μg/m³
Thursday 27 August 2026
14:52 3 21.4 75 38,460 0.01 0 5.8 12.9 31.73 2.7 14.86 20.45 22.49
14:51 3 21.4 75 38,460 0.02 0 4 13.3 37.22 2.89 15.71 20.48 22.53
14:50 3 21.4 75 38,460 0.02 0 3.01 25.6 32.23 3.3 14.86 20.45 22.49
14:49 3 21.4 75 38,460 0.01 0 3.09 13.27 37.73 2.66 14.86 21.22 23.35
14:48 3 21.4 75 38,460 0.01 0 2.08 7.99 47.68 2.26 16.57 21.21 23.33
14:47 3 21.4 76 38,460 0.01 0 1.24 8.38 44.08 2.02 14.86 21.11 23.22
14:46 3 21.4 77 38,460 0.02 0 1.26 6.38 38.27 1.3 15.71 22.39 24.63
14:45 3 21.4 77 38,460 0.04 0 1.17 9.66 42.8 1.5 17.43 22.4 24.64
14:44 3 21.3 76 38,460 0.09 0 1.28 7.34 45.19 2.1 15.71 21.73 23.9
14:43 3 21.3 76 38,460 0.05 0 1.79 9.05 38.18 3.17 14 21.12 23.24
14:42 3 21.3 76 38,460 0.05 0 2.13 12.97 38.19 3.56 11.43 17.54 19.29
14:41 3 21.3 76 38,460 0.04 0 2.18 9.64 44.48 3.08 14.86 20.35 22.38
14:40 3 21.3 76 38,460 0.03 0 2.43 9.5 43.45 2.36 14.86 19.63 21.59
14:39 3 21.2 77 38,460 0.06 0 2.64 13.44 50.98 1.92 13.14 20.29 22.32
14:38 3 21.2 76 38,460 0.04 0 2.74 13.22 39.9 1.87 17.43 22.52 24.77
14:37 3 21.2 76 38,460 0.09 0 3.16 7.94 36.5 2.94 16.57 23.91 26.31
14:36 3 21.1 76 38,460 0.07 1.59 3.04 13.55 43.04 2.27 17.43 23.13 25.45
14:35 3 21.1 76 38,460 0.07 2.36 2.81 17.31 44.02 2.76 15.71 21.72 23.89
14:34 3 21.1 76 38,460 0.06 1.12 2.73 13.16 40.47 2.78 16.57 21.02 23.13
14:33 3 21 77 38,460 0.03 0.97 2.7 13.75 48.69 2.04 18.29 26.61 29.27